createdAt,value
2023-03-23T00:01:27.802Z,550.00
2023-03-23T00:05:27.412Z,547.00
2023-03-23T00:09:28.304Z,550.00
2023-03-23T00:13:27.370Z,549.00
2023-03-23T00:17:27.776Z,555.00
2023-03-23T00:21:27.829Z,556.00
2023-03-23T00:25:27.362Z,551.00
2023-03-23T00:29:27.278Z,551.00
2023-03-23T00:33:27.280Z,554.00
2023-03-23T00:37:27.321Z,549.00
2023-03-23T00:41:27.820Z,548.00
2023-03-23T00:45:27.274Z,549.00
2023-03-23T00:49:27.336Z,548.00
2023-03-23T00:53:27.269Z,545.00
2023-03-23T00:57:27.298Z,545.00
2023-03-23T01:01:27.323Z,543.00
2023-03-23T01:05:27.263Z,547.00
2023-03-23T01:09:27.350Z,544.00
2023-03-23T01:13:27.287Z,545.00
2023-03-23T01:17:27.312Z,546.00
2023-03-23T01:21:27.292Z,546.00
2023-03-23T01:25:27.241Z,543.00
2023-03-23T01:29:27.227Z,547.00
2023-03-23T01:33:27.216Z,542.00
2023-03-23T01:37:27.205Z,541.00
2023-03-23T01:41:27.165Z,543.00
2023-03-23T01:45:27.338Z,541.00
2023-03-23T01:49:27.115Z,536.00
2023-03-23T01:53:27.338Z,538.00
2023-03-23T01:57:27.314Z,540.00
2023-03-23T02:01:27.332Z,539.00
2023-03-23T02:05:27.089Z,540.00
2023-03-23T02:09:27.096Z,541.00
2023-03-23T02:13:27.055Z,543.00
2023-03-23T02:17:27.344Z,537.00
2023-03-23T02:21:27.369Z,541.00
2023-03-23T02:25:27.037Z,534.00
2023-03-23T02:29:27.333Z,539.00
2023-03-23T02:33:27.388Z,532.00
2023-03-23T02:37:27.356Z,537.00
2023-03-23T02:41:27.845Z,536.00
2023-03-23T02:45:26.821Z,534.00
2023-03-23T02:49:26.867Z,533.00
2023-03-23T02:53:26.777Z,528.00
2023-03-23T02:57:40.242Z,531.00
2023-03-23T03:01:27.861Z,529.00
2023-03-23T03:05:26.700Z,534.00
2023-03-23T03:09:26.865Z,523.00
2023-03-23T03:13:26.890Z,528.00
2023-03-23T03:17:26.848Z,530.00
2023-03-23T03:21:26.539Z,531.00
2023-03-23T03:25:26.491Z,529.00
2023-03-23T03:29:26.898Z,525.00
2023-03-23T03:33:26.875Z,533.00
2023-03-23T03:37:26.881Z,523.00
2023-03-23T03:41:26.353Z,525.00
2023-03-23T03:45:26.376Z,528.00
2023-03-23T03:49:26.324Z,523.00
2023-03-23T03:53:28.743Z,527.00
2023-03-23T03:57:26.376Z,528.00
2023-03-23T04:01:26.206Z,526.00
2023-03-23T04:05:26.163Z,526.00
2023-03-23T04:09:26.380Z,527.00
2023-03-23T04:13:26.383Z,524.00
2023-03-23T04:17:26.071Z,524.00
2023-03-23T04:21:26.008Z,521.00
2023-03-23T04:25:26.002Z,518.00
2023-03-23T04:29:25.969Z,521.00
2023-03-23T04:33:26.008Z,521.00
2023-03-23T04:37:26.898Z,521.00
2023-03-23T04:41:25.832Z,519.00
2023-03-23T04:45:25.801Z,520.00
2023-03-23T04:49:25.806Z,518.00
2023-03-23T04:53:25.719Z,519.00
2023-03-23T04:57:25.688Z,517.00
2023-03-23T05:01:25.673Z,517.00
2023-03-23T05:05:25.625Z,515.00
2023-03-23T05:09:25.590Z,518.00
2023-03-23T05:13:26.409Z,514.00
2023-03-23T05:17:25.538Z,514.00
2023-03-23T05:21:25.492Z,516.00
2023-03-23T05:25:25.483Z,513.00
2023-03-23T05:29:25.472Z,515.00
2023-03-23T05:33:25.487Z,516.00
2023-03-23T05:37:25.472Z,514.00
2023-03-23T05:41:25.443Z,512.00
2023-03-23T05:45:25.472Z,514.00
2023-03-23T05:49:25.453Z,514.00
2023-03-23T05:53:25.418Z,512.00
2023-03-23T05:57:25.458Z,509.00
2023-03-23T06:01:25.415Z,510.00
2023-03-23T06:05:25.444Z,509.00
2023-03-23T06:09:25.372Z,511.00
2023-03-23T06:13:25.406Z,516.00
2023-03-23T06:17:25.435Z,512.00
2023-03-23T06:21:25.512Z,515.00
2023-03-23T06:25:25.598Z,519.00
2023-03-23T06:29:25.667Z,514.00
2023-03-23T06:33:25.752Z,515.00
2023-03-23T06:37:25.762Z,511.00
2023-03-23T06:41:25.815Z,512.00
2023-03-23T06:45:25.795Z,512.00
2023-03-23T06:49:25.801Z,510.00
2023-03-23T06:53:25.833Z,505.00
2023-03-23T06:57:25.782Z,511.00
2023-03-23T07:01:25.810Z,508.00
2023-03-23T07:05:25.866Z,505.00
2023-03-23T07:09:41.099Z,506.00
2023-03-23T07:13:26.850Z,508.00
2023-03-23T07:17:25.795Z,508.00
2023-03-23T07:21:25.722Z,506.00
2023-03-23T07:25:25.699Z,512.00
2023-03-23T07:29:25.677Z,506.00
2023-03-23T07:33:26.004Z,508.00
2023-03-23T07:37:25.630Z,508.00
2023-03-23T07:41:25.521Z,503.00
2023-03-23T07:45:25.528Z,506.00
2023-03-23T07:49:25.503Z,508.00
2023-03-23T07:53:25.501Z,500.00
2023-03-23T07:57:25.415Z,503.00
2023-03-23T08:01:25.379Z,504.00
2023-03-23T08:05:25.371Z,507.00
2023-03-23T08:09:25.545Z,513.00
2023-03-23T08:13:25.636Z,535.00
2023-03-23T08:17:25.865Z,542.00
2023-03-23T08:21:26.003Z,530.00
2023-03-23T08:25:26.113Z,526.00
2023-03-23T08:29:26.240Z,511.00
2023-03-23T08:33:26.334Z,516.00
2023-03-23T08:37:26.495Z,513.00
2023-03-23T08:41:26.661Z,507.00
2023-03-23T08:45:26.889Z,505.00
2023-03-23T08:49:27.155Z,503.00
2023-03-23T08:53:27.068Z,516.00
2023-03-23T08:57:27.007Z,532.00
2023-03-23T09:01:26.979Z,539.00
2023-03-23T09:05:26.916Z,547.00
2023-03-23T09:09:26.865Z,612.00
2023-03-23T09:13:26.880Z,570.00
2023-03-23T09:17:26.828Z,563.00
2023-03-23T09:21:26.748Z,556.00
2023-03-23T09:25:26.741Z,552.00
2023-03-23T09:29:26.712Z,525.00
2023-03-23T09:33:26.659Z,547.00
2023-03-23T09:37:26.760Z,541.00
2023-03-23T09:41:26.909Z,519.00
2023-03-23T09:45:27.121Z,565.00
2023-03-23T09:49:27.258Z,593.00
2023-03-23T09:53:27.379Z,608.00
2023-03-23T09:57:27.464Z,604.00
2023-03-23T10:01:27.643Z,521.00
2023-03-23T10:05:27.674Z,485.00
2023-03-23T10:09:27.855Z,596.00
2023-03-23T10:13:27.900Z,603.00
2023-03-23T10:17:28.195Z,629.00
2023-03-23T10:21:28.269Z,653.00
2023-03-23T10:25:28.358Z,690.00
2023-03-23T10:29:28.362Z,703.00
2023-03-23T10:33:28.457Z,767.00
2023-03-23T10:37:28.417Z,789.00
2023-03-23T10:41:28.377Z,847.00
2023-03-23T10:45:28.344Z,854.00
2023-03-23T10:49:28.698Z,863.00
2023-03-23T10:53:28.309Z,745.00
2023-03-23T10:57:28.246Z,677.00
2023-03-23T11:01:28.203Z,856.00
2023-03-23T11:05:28.144Z,1182.00
2023-03-23T11:09:28.112Z,910.00
2023-03-23T11:13:28.064Z,829.00
2023-03-23T11:17:28.089Z,816.00
2023-03-23T11:21:28.050Z,800.00
2023-03-23T11:25:27.999Z,775.00
2023-03-23T11:29:27.979Z,754.00
2023-03-23T11:33:27.928Z,733.00
2023-03-23T11:37:27.946Z,708.00
2023-03-23T11:41:28.409Z,693.00
2023-03-23T11:45:28.082Z,717.00
2023-03-23T11:49:30.145Z,710.00
2023-03-23T11:53:27.778Z,700.00
2023-03-23T11:57:27.729Z,685.00
2023-03-23T12:01:27.685Z,667.00
2023-03-23T12:05:27.675Z,663.00
2023-03-23T12:09:27.644Z,661.00
2023-03-23T12:13:27.627Z,662.00
2023-03-23T12:17:27.569Z,652.00
2023-03-23T12:21:27.536Z,651.00
2023-03-23T12:25:27.533Z,649.00
2023-03-23T12:29:27.446Z,652.00
2023-03-23T12:33:27.405Z,642.00
2023-03-23T12:37:27.355Z,631.00
2023-03-23T12:41:27.413Z,632.00
2023-03-23T12:45:27.368Z,632.00
2023-03-23T12:49:27.277Z,627.00
2023-03-23T12:53:27.255Z,634.00
2023-03-23T12:57:27.182Z,614.00
2023-03-23T13:01:27.177Z,624.00
2023-03-23T13:05:27.139Z,616.00
2023-03-23T13:09:27.321Z,626.00
2023-03-23T13:13:27.540Z,613.00
2023-03-23T13:17:27.589Z,618.00
2023-03-23T13:21:27.763Z,611.00
2023-03-23T13:25:27.954Z,622.00
2023-03-23T13:29:28.063Z,620.00
2023-03-23T13:33:28.241Z,638.00
2023-03-23T13:37:28.429Z,719.00
2023-03-23T13:41:28.480Z,746.00
2023-03-23T13:45:28.519Z,791.00
2023-03-23T13:49:28.587Z,688.00
2023-03-23T13:53:30.575Z,680.00
2023-03-23T13:57:28.734Z,655.00
2023-03-23T14:01:36.175Z,662.00
2023-03-23T14:05:28.861Z,659.00
2023-03-23T14:09:28.797Z,662.00
2023-03-23T14:13:28.782Z,648.00
2023-03-23T14:17:28.703Z,657.00
2023-03-23T14:21:28.677Z,645.00
2023-03-23T14:25:28.660Z,663.00
2023-03-23T14:29:28.610Z,651.00
2023-03-23T14:33:28.647Z,650.00
2023-03-23T14:37:28.628Z,651.00
2023-03-23T14:41:28.698Z,649.00
2023-03-23T14:45:28.854Z,640.00
2023-03-23T14:49:29.160Z,628.00
2023-03-23T14:53:29.667Z,635.00
2023-03-23T14:57:29.664Z,631.00
2023-03-23T15:01:29.518Z,621.00
2023-03-23T15:05:30.176Z,612.00
2023-03-23T15:09:30.156Z,620.00
2023-03-23T15:13:30.165Z,629.00
2023-03-23T15:17:30.667Z,609.00
2023-03-23T15:21:30.424Z,620.00
2023-03-23T15:25:30.613Z,613.00
2023-03-23T15:29:31.186Z,612.00
2023-03-23T15:33:31.690Z,604.00
2023-03-23T15:37:31.205Z,597.00
2023-03-23T15:41:31.706Z,600.00
2023-03-23T15:45:31.661Z,598.00
2023-03-23T15:49:32.252Z,587.00
2023-03-23T15:53:32.683Z,583.00
2023-03-23T15:57:32.028Z,572.00
2023-03-23T16:01:32.008Z,567.00
2023-03-23T16:05:32.236Z,568.00
2023-03-23T16:09:32.285Z,568.00
2023-03-23T16:13:32.208Z,573.00
2023-03-23T16:17:31.878Z,568.00
2023-03-23T16:21:31.830Z,568.00
2023-03-23T16:25:32.247Z,567.00
2023-03-23T16:29:54.149Z,565.00
2023-03-23T16:33:32.951Z,565.00
2023-03-23T16:37:32.089Z,560.00
2023-03-23T16:41:32.333Z,559.00
2023-03-23T16:45:32.701Z,553.00
2023-03-23T16:49:32.639Z,558.00
2023-03-23T16:53:32.868Z,551.00
2023-03-23T16:57:33.207Z,554.00
2023-03-23T17:01:33.233Z,552.00
2023-03-23T17:05:33.197Z,549.00
2023-03-23T17:09:33.194Z,551.00
2023-03-23T17:13:33.231Z,549.00
2023-03-23T17:17:33.726Z,549.00
2023-03-23T17:21:34.213Z,551.00
2023-03-23T17:25:33.729Z,549.00
2023-03-23T17:29:33.760Z,552.00
2023-03-23T17:33:33.475Z,550.00
2023-03-23T17:37:33.765Z,552.00
2023-03-23T17:41:33.525Z,551.00
2023-03-23T17:45:33.710Z,551.00
2023-03-23T17:49:33.670Z,551.00
2023-03-23T17:53:33.711Z,551.00
2023-03-23T17:57:33.729Z,549.00
2023-03-23T18:01:33.827Z,554.00
2023-03-23T18:05:33.730Z,549.00
2023-03-23T18:09:33.730Z,549.00
2023-03-23T18:13:33.745Z,555.00
2023-03-23T18:17:33.790Z,545.00
2023-03-23T18:21:33.736Z,550.00
2023-03-23T18:25:33.727Z,549.00
2023-03-23T18:29:33.693Z,547.00
2023-03-23T18:33:33.679Z,543.00
2023-03-23T18:37:33.758Z,543.00
2023-03-23T18:41:33.640Z,545.00
2023-03-23T18:45:33.835Z,543.00
2023-03-23T18:49:33.623Z,548.00
2023-03-23T18:53:33.766Z,544.00
2023-03-23T18:57:33.579Z,542.00
2023-03-23T19:01:33.582Z,548.00
2023-03-23T19:05:33.536Z,541.00
2023-03-23T19:09:33.760Z,539.00
2023-03-23T19:13:33.582Z,545.00
2023-03-23T19:17:33.844Z,540.00
2023-03-23T19:21:34.144Z,546.00
2023-03-23T19:25:33.570Z,639.00
2023-03-23T19:29:34.880Z,574.00
2023-03-23T19:33:33.782Z,604.00
2023-03-23T19:37:34.835Z,614.00
2023-03-23T19:41:33.797Z,631.00
2023-03-23T19:45:33.682Z,646.00
2023-03-23T19:49:33.776Z,653.00
2023-03-23T19:53:33.753Z,676.00
2023-03-23T19:57:33.580Z,682.00
2023-03-23T20:01:33.668Z,696.00
2023-03-23T20:05:34.380Z,724.00
2023-03-23T20:09:34.328Z,959.00
2023-03-23T20:13:34.078Z,1228.00
2023-03-23T20:17:34.410Z,1471.00
2023-03-23T20:21:34.539Z,1402.00
2023-03-23T20:25:34.382Z,1384.00
2023-03-23T20:29:35.065Z,1342.00
2023-03-23T20:33:34.534Z,1329.00
2023-03-23T20:37:34.828Z,1357.00
2023-03-23T20:41:34.598Z,1289.00
2023-03-23T20:45:34.779Z,1260.00
2023-03-23T20:49:34.718Z,1227.00
2023-03-23T20:53:34.808Z,1211.00
2023-03-23T20:57:34.799Z,1168.00
2023-03-23T21:01:34.858Z,1138.00
2023-03-23T21:05:35.298Z,1095.00
2023-03-23T21:09:35.081Z,1072.00
2023-03-23T21:13:35.284Z,1067.00
2023-03-23T21:17:35.408Z,1019.00
2023-03-23T21:21:35.852Z,995.00
2023-03-23T21:25:35.818Z,982.00
2023-03-23T21:29:35.950Z,971.00
2023-03-23T21:33:36.296Z,936.00
2023-03-23T21:37:36.364Z,939.00
2023-03-23T21:41:42.142Z,900.00
2023-03-23T21:45:37.852Z,903.00
2023-03-23T21:49:40.661Z,893.00
2023-03-23T21:53:36.951Z,877.00
2023-03-23T21:57:36.558Z,868.00
2023-03-23T22:01:36.601Z,844.00
2023-03-23T22:05:37.330Z,846.00
2023-03-23T22:09:36.689Z,819.00
2023-03-23T22:13:36.637Z,815.00
2023-03-23T22:17:36.645Z,799.00
2023-03-23T22:21:36.869Z,782.00
2023-03-23T22:25:36.823Z,786.00
2023-03-23T22:29:36.506Z,768.00
2023-03-23T22:33:36.464Z,760.00
2023-03-23T22:37:36.470Z,722.00
2023-03-23T22:41:36.864Z,735.00
2023-03-23T22:45:36.872Z,736.00
2023-03-23T22:49:36.659Z,717.00
2023-03-23T22:53:36.848Z,701.00
2023-03-23T22:57:36.950Z,696.00
2023-03-23T23:01:37.094Z,680.00
2023-03-23T23:05:37.070Z,676.00
2023-03-23T23:09:37.123Z,669.00
2023-03-23T23:13:37.152Z,665.00
2023-03-23T23:17:37.204Z,660.00
2023-03-23T23:21:37.285Z,663.00
2023-03-23T23:25:37.318Z,655.00
2023-03-23T23:29:37.305Z,647.00
2023-03-23T23:33:37.325Z,652.00
2023-03-23T23:37:37.453Z,646.00
2023-03-23T23:41:37.403Z,643.00
2023-03-23T23:45:37.376Z,643.00
2023-03-23T23:49:37.367Z,638.00
2023-03-23T23:53:37.362Z,635.00
2023-03-23T23:57:37.856Z,633.00
